Time;durP1;ratioP1;P1;durP2;ratioP2;P2;SDS_P1;SDS_P2;PMS_P1;PMS_P2;Temp;Humidity;BMP_temperature;BMP_pressure;BME280_temperature;BME280_humidity;BME280_pressure;Samples;Min_cycle;Max_cycle;Signal;HPM_P1;HPM_P2
2024/03/18 00:02:08;;;;;;;8.63;4.63;;;10.00;99.90;;;;;;5034564;28;20026;-56
2024/03/18 00:04:33;;;;;;;9.68;5.13;;;9.90;99.90;;;;;;5033499;28;20033;-56
2024/03/18 00:06:59;;;;;;;11.97;6.00;;;9.80;99.90;;;;;;5034442;28;20026;-56
2024/03/18 00:09:24;;;;;;;12.63;5.57;;;9.80;99.90;;;;;;5034214;28;20029;-56
2024/03/18 00:11:50;;;;;;;14.43;6.37;;;9.70;99.90;;;;;;5034436;28;20544;-56
2024/03/18 00:14:15;;;;;;;13.20;6.10;;;9.70;99.90;;;;;;5034118;28;20060;-56
2024/03/18 00:16:41;;;;;;;13.40;6.67;;;9.60;99.90;;;;;;5034113;28;20029;-56
2024/03/18 00:19:07;;;;;;;13.90;6.30;;;9.60;99.90;;;;;;5034077;28;20033;-56
2024/03/18 00:21:32;;;;;;;11.00;6.40;;;9.60;99.90;;;;;;5016548;28;20056;-53
2024/03/18 00:23:58;;;;;;;12.40;6.17;;;9.60;99.90;;;;;;5033870;28;20041;-55
2024/03/18 00:26:23;;;;;;;12.57;5.70;;;9.60;99.90;;;;;;5034050;28;20311;-52
2024/03/18 00:28:49;;;;;;;12.30;6.23;;;9.60;99.90;;;;;;5033769;28;20029;-56
2024/03/18 00:31:15;;;;;;;11.20;5.17;;;9.70;99.90;;;;;;5033702;28;20159;-56
2024/03/18 00:33:40;;;;;;;14.57;6.30;;;9.60;99.90;;;;;;5033886;28;20052;-55
2024/03/18 00:36:06;;;;;;;12.70;6.20;;;9.60;99.90;;;;;;5033718;28;20399;-56
2024/03/18 00:38:31;;;;;;;14.43;6.13;;;9.60;99.90;;;;;;5033732;28;20079;-55
2024/03/18 00:41:44;;;;;;;13.17;6.20;;;9.60;99.90;;;;;;5033658;28;20064;-56
2024/03/18 00:43:42;;;;;;;13.63;5.23;;;9.60;99.90;;;;;;5033488;28;20390;-53
2024/03/18 00:46:08;;;;;;;11.47;5.57;;;9.60;99.90;;;;;;5033691;28;20038;-52
2024/03/18 00:48:34;;;;;;;13.03;5.87;;;9.60;99.90;;;;;;5015944;28;20036;-57
2024/03/18 00:51:00;;;;;;;13.20;6.00;;;9.60;99.90;;;;;;5033255;28;20474;-57
2024/03/18 00:53:26;;;;;;;13.70;6.23;;;9.60;99.90;;;;;;5033323;28;20025;-57
2024/03/18 00:55:52;;;;;;;13.13;5.60;;;9.50;99.90;;;;;;5033258;28;20037;-57
2024/03/18 00:58:18;;;;;;;11.47;5.30;;;9.50;99.90;;;;;;5033304;28;20045;-56
2024/03/18 01:00:43;;;;;;;13.30;6.00;;;9.50;99.90;;;;;;5033187;28;20042;-57
2024/03/18 01:03:09;;;;;;;12.83;5.73;;;9.50;99.90;;;;;;5033021;28;20068;-56
2024/03/18 01:05:34;;;;;;;13.93;5.73;;;9.50;99.90;;;;;;5033014;28;20434;-57
2024/03/18 01:08:01;;;;;;;14.93;6.37;;;9.50;99.90;;;;;;5032971;28;20033;-57
2024/03/18 01:10:27;;;;;;;15.07;6.17;;;9.50;99.90;;;;;;5033190;28;20034;-57
2024/03/18 01:12:55;;;;;;;14.37;6.40;;;9.50;99.90;;;;;;5033073;28;20022;-57
2024/03/18 01:15:21;;;;;;;13.60;5.50;;;9.50;99.90;;;;;;5032776;28;20502;-57
2024/03/18 01:17:47;;;;;;;14.90;5.70;;;9.50;99.90;;;;;;5033005;28;20179;-57
2024/03/18 01:20:18;;;;;;;14.03;5.90;;;9.50;99.90;;;;;;5032676;28;20183;-57
2024/03/18 01:22:45;;;;;;;12.83;6.13;;;9.50;99.90;;;;;;5032897;28;20041;-57
2024/03/18 01:25:14;;;;;;;12.93;6.23;;;9.50;99.90;;;;;;5032646;28;20037;-58
2024/03/18 01:27:40;;;;;;;17.48;6.03;;;9.40;99.90;;;;;;5033035;28;20381;-58
2024/03/18 01:30:11;;;;;;;13.33;5.53;;;9.40;99.90;;;;;;5032526;28;20183;-56
2024/03/18 01:32:38;;;;;;;11.50;6.10;;;9.50;99.90;;;;;;5032560;28;20042;-57
2024/03/18 01:35:05;;;;;;;13.43;5.87;;;9.50;99.90;;;;;;5032392;28;20026;-57
2024/03/18 01:37:30;;;;;;;10.33;5.47;;;9.50;99.90;;;;;;5032541;28;20064;-57
2024/03/18 01:39:56;;;;;;;12.47;5.70;;;9.40;99.90;;;;;;5032411;28;20470;-56
2024/03/18 01:42:22;;;;;;;11.37;6.03;;;9.50;99.90;;;;;;5032491;28;20037;-57
2024/03/18 01:44:53;;;;;;;13.27;5.90;;;9.40;99.90;;;;;;5032326;28;20035;-57
2024/03/18 01:47:20;;;;;;;12.77;5.70;;;9.40;99.90;;;;;;5032161;28;20045;-57
2024/03/18 01:49:46;;;;;;;11.10;5.83;;;9.40;99.90;;;;;;5032243;28;20076;-57
2024/03/18 01:52:12;;;;;;;12.47;6.40;;;9.40;99.90;;;;;;5032519;28;20061;-57
2024/03/18 01:54:39;;;;;;;62.10;9.00;;;9.40;99.90;;;;;;5032141;28;20072;-57
2024/03/18 01:57:05;;;;;;;13.67;6.70;;;9.40;99.90;;;;;;5032254;28;20053;-57
2024/03/18 01:59:30;;;;;;;12.10;5.70;;;9.40;99.90;;;;;;5014442;28;20069;-57
2024/03/18 02:01:56;;;;;;;12.07;5.63;;;9.30;99.90;;;;;;5032067;28;20033;-56
2024/03/18 02:04:21;;;;;;;11.73;5.73;;;9.40;99.90;;;;;;5031923;28;20033;-56
2024/03/18 02:06:47;;;;;;;15.20;6.43;;;9.40;99.90;;;;;;5031963;28;20037;-56
2024/03/18 02:09:15;;;;;;;15.43;6.10;;;9.40;99.90;;;;;;5031912;28;20111;-57
2024/03/18 02:11:41;;;;;;;12.05;5.80;;;9.40;99.90;;;;;;5031892;28;20485;-57
2024/03/18 02:14:17;;;;;;;12.33;5.80;;;9.30;99.90;;;;;;5031844;28;20049;-56
2024/03/18 02:16:45;;;;;;;12.67;5.40;;;9.50;99.90;;;;;;5031821;28;20025;-56
2024/03/18 02:19:11;;;;;;;13.90;6.18;;;9.40;99.90;;;;;;5031914;28;20120;-57
2024/03/18 02:21:37;;;;;;;11.90;5.63;;;9.50;99.90;;;;;;5032066;28;20057;-55
2024/03/18 02:24:06;;;;;;;10.90;5.63;;;9.50;99.90;;;;;;5031744;28;20483;-57
2024/03/18 02:26:32;;;;;;;11.90;5.45;;;9.60;99.90;;;;;;5031788;28;20029;-57
2024/03/18 02:28:58;;;;;;;12.37;5.47;;;9.50;99.90;;;;;;5031193;28;20120;-57
2024/03/18 02:31:24;;;;;;;12.53;5.87;;;9.60;99.90;;;;;;5031611;28;20127;-57
2024/03/18 02:33:50;;;;;;;12.50;5.60;;;9.50;99.90;;;;;;5031703;28;20029;-54
2024/03/18 02:36:16;;;;;;;9.23;5.50;;;9.60;99.90;;;;;;5031859;28;20037;-57
2024/03/18 02:38:41;;;;;;;11.97;5.70;;;9.60;99.90;;;;;;5031762;28;20116;-57
2024/03/18 02:41:07;;;;;;;12.30;5.63;;;9.60;99.90;;;;;;5031684;28;20025;-57
2024/03/18 02:43:33;;;;;;;11.43;5.80;;;9.70;99.90;;;;;;5031509;28;20429;-57
2024/03/18 02:45:59;;;;;;;12.17;5.73;;;9.60;99.90;;;;;;5031601;28;20033;-57
2024/03/18 02:48:25;;;;;;;10.73;5.53;;;9.60;99.90;;;;;;5031620;28;20037;-57
2024/03/18 02:50:51;;;;;;;10.23;5.50;;;9.60;99.90;;;;;;5031584;28;20038;-57
2024/03/18 02:53:17;;;;;;;11.40;5.53;;;9.60;99.90;;;;;;5031480;28;20025;-56
2024/03/18 02:55:43;;;;;;;12.23;5.90;;;9.60;99.90;;;;;;5031624;28;20028;-57
2024/03/18 02:58:08;;;;;;;11.83;5.90;;;9.60;99.90;;;;;;5031572;28;20394;-57
2024/03/18 03:00:34;;;;;;;12.77;5.83;;;9.60;99.90;;;;;;5031624;28;20104;-57
2024/03/18 03:03:00;;;;;;;11.23;5.20;;;9.70;99.90;;;;;;5014181;28;20033;-56
2024/03/18 03:05:25;;;;;;;12.30;5.73;;;9.70;99.90;;;;;;5031395;28;20037;-56
2024/03/18 03:07:51;;;;;;;11.17;5.63;;;9.70;99.90;;;;;;5031256;28;20033;-57
2024/03/18 03:10:17;;;;;;;12.90;5.90;;;9.70;99.90;;;;;;5031273;28;20076;-57
2024/03/18 03:12:43;;;;;;;11.27;5.13;;;9.70;99.90;;;;;;5031858;28;20025;-56
2024/03/18 03:15:09;;;;;;;10.43;5.40;;;9.70;99.90;;;;;;5031085;28;20460;-56
2024/03/18 03:17:35;;;;;;;11.00;5.40;;;9.70;99.90;;;;;;5031304;28;20513;-56
2024/03/18 03:20:04;;;;;;;13.40;6.07;;;9.60;99.90;;;;;;5031168;28;20057;-56
2024/03/18 03:22:29;;;;;;;10.07;5.50;;;9.70;99.90;;;;;;5031699;28;20030;-57
2024/03/18 03:24:55;;;;;;;10.47;5.67;;;9.70;99.90;;;;;;5031131;28;20040;-57
2024/03/18 03:27:21;;;;;;;12.10;5.63;;;9.70;99.90;;;;;;5031182;28;20083;-55
2024/03/18 03:29:46;;;;;;;12.37;5.80;;;9.70;99.90;;;;;;5031032;28;20026;-56
2024/03/18 03:32:15;;;;;;;10.50;5.73;;;9.80;99.90;;;;;;5031110;28;20399;-57
2024/03/18 03:34:41;;;;;;;11.85;5.95;;;9.70;99.90;;;;;;5031092;28;20037;-57
2024/03/18 03:37:07;;;;;;;12.37;5.37;;;9.80;99.90;;;;;;5031064;28;20022;-56
2024/03/18 03:39:35;;;;;;;11.43;5.67;;;9.80;99.90;;;;;;5032091;28;20202;-54
2024/03/18 03:42:05;;;;;;;11.33;5.03;;;9.80;99.90;;;;;;5034769;28;20124;-56
2024/03/18 03:44:31;;;;;;;10.40;5.80;;;9.80;99.90;;;;;;5034787;28;20048;-56
2024/03/18 03:46:57;;;;;;;12.30;5.57;;;9.80;99.90;;;;;;5034588;28;20032;-57
2024/03/18 03:49:25;;;;;;;11.33;5.70;;;9.90;99.90;;;;;;5034527;28;20485;-56
2024/03/18 03:51:51;;;;;;;11.10;5.47;;;9.90;99.90;;;;;;5034575;28;20080;-56
2024/03/18 03:54:17;;;;;;;12.70;6.10;;;9.80;99.90;;;;;;5034283;28;20494;-57
2024/03/18 03:56:42;;;;;;;12.90;6.70;;;9.80;99.90;;;;;;5034388;28;20037;-57
2024/03/18 03:59:08;;;;;;;12.97;5.77;;;9.80;99.90;;;;;;5034590;28;20387;-56
2024/03/18 04:01:34;;;;;;;11.50;5.93;;;9.90;99.90;;;;;;5034309;28;20037;-57
2024/03/18 04:03:59;;;;;;;13.43;5.90;;;9.90;99.90;;;;;;5034159;28;20036;-56
2024/03/18 04:06:25;;;;;;;11.10;5.30;;;9.90;99.90;;;;;;5034255;28;20116;-55
2024/03/18 04:08:50;;;;;;;13.53;5.70;;;9.80;99.90;;;;;;5034076;28;20038;-57
2024/03/18 04:11:17;;;;;;;12.67;5.97;;;9.80;99.90;;;;;;5034120;28;20056;-56
2024/03/18 04:13:43;;;;;;;12.57;5.93;;;9.80;99.90;;;;;;5034005;28;20022;-57
2024/03/18 04:16:09;;;;;;;11.50;6.13;;;9.90;99.90;;;;;;5033973;28;20104;-56
2024/03/18 04:18:35;;;;;;;11.97;5.23;;;9.80;99.90;;;;;;5034330;28;20041;-56
2024/03/18 04:21:03;;;;;;;11.47;5.13;;;9.80;99.90;;;;;;5034025;28;20045;-54
2024/03/18 04:23:32;;;;;;;13.20;6.40;;;9.70;99.90;;;;;;5033752;28;20035;-57
2024/03/18 04:26:08;;;;;;;11.02;6.28;;;9.70;99.90;;;;;;5033795;28;20471;-56
2024/03/18 04:28:34;;;;;;;12.03;5.63;;;9.80;99.90;;;;;;5033738;28;20042;-57
2024/03/18 04:31:07;;;;;;;12.63;4.87;;;9.80;99.90;;;;;;5033622;28;20040;-56
2024/03/18 04:33:34;;;;;;;13.67;5.83;;;9.90;99.90;;;;;;5033788;28;20474;-55
2024/03/18 04:36:00;;;;;;;13.77;5.30;;;9.90;99.90;;;;;;5033627;28;20076;-57
2024/03/18 04:38:28;;;;;;;11.80;5.47;;;9.90;99.90;;;;;;5033777;28;20033;-56
2024/03/18 04:40:54;;;;;;;13.03;5.57;;;9.90;99.90;;;;;;5033779;28;20041;-56
2024/03/18 04:43:19;;;;;;;12.80;6.13;;;9.90;99.90;;;;;;5033471;28;20124;-56
2024/03/18 04:45:45;;;;;;;12.40;5.20;;;9.90;99.90;;;;;;5033467;28;20061;-55
2024/03/18 04:48:11;;;;;;;12.30;5.60;;;9.90;99.90;;;;;;5033277;28;20040;-57
2024/03/18 04:50:37;;;;;;;14.13;6.10;;;9.90;99.90;;;;;;5032933;28;20029;-57
2024/03/18 04:53:03;;;;;;;13.07;6.03;;;9.90;99.90;;;;;;5047975;22;20093;-49
2024/03/18 04:55:28;;;;;;;11.67;6.27;;;9.90;99.90;;;;;;5013441;28;20172;-47
2024/03/18 04:57:58;;;;;;;11.43;5.27;;;9.90;99.90;;;;;;5012350;28;20030;-48
2024/03/18 05:00:24;;;;;;;12.53;5.77;;;9.90;99.90;;;;;;5021344;28;20030;-48
2024/03/18 05:02:51;;;;;;;12.00;5.83;;;9.90;99.90;;;;;;5033341;28;20036;-50
2024/03/18 05:05:17;;;;;;;11.00;5.30;;;9.90;99.90;;;;;;5032923;28;20055;-47
2024/03/18 05:07:43;;;;;;;8.70;4.73;;;9.90;99.90;;;;;;5033273;28;20437;-47
2024/03/18 05:10:10;;;;;;;13.00;5.70;;;10.00;99.90;;;;;;5033037;28;20061;-48
2024/03/18 05:12:37;;;;;;;13.07;6.33;;;10.00;99.90;;;;;;5033175;28;20363;-48
2024/03/18 05:15:04;;;;;;;10.80;5.60;;;10.00;99.90;;;;;;5032844;28;20029;-47
2024/03/18 05:17:29;;;;;;;11.17;5.63;;;10.00;99.90;;;;;;5033021;28;20108;-49
2024/03/18 05:19:58;;;;;;;11.93;5.80;;;9.90;99.90;;;;;;5032856;28;20581;-48
2024/03/18 05:22:25;;;;;;;11.00;5.28;;;9.90;99.90;;;;;;5033006;28;20370;-48
2024/03/18 05:24:50;;;;;;;11.90;5.97;;;10.00;99.90;;;;;;5032792;28;20026;-48
2024/03/18 05:27:18;;;;;;;10.53;5.63;;;10.00;99.90;;;;;;5032759;28;20028;-48
2024/03/18 05:29:44;;;;;;;13.60;5.70;;;9.90;99.90;;;;;;5032668;28;20044;-48
2024/03/18 05:32:14;;;;;;;12.17;5.50;;;9.90;99.90;;;;;;5032632;28;20087;-48
2024/03/18 05:34:41;;;;;;;12.07;6.30;;;10.00;99.90;;;;;;5032589;28;20434;-49
2024/03/18 05:37:09;;;;;;;11.80;6.17;;;9.90;99.90;;;;;;5032602;28;20034;-47
2024/03/18 05:39:38;;;;;;;13.37;5.80;;;9.90;99.90;;;;;;5032518;28;20038;-48
2024/03/18 05:42:05;;;;;;;12.73;6.22;;;9.90;99.90;;;;;;5032605;28;20120;-48
2024/03/18 05:44:30;;;;;;;12.50;5.77;;;9.90;99.90;;;;;;5031225;28;20029;-48
2024/03/18 05:46:57;;;;;;;13.90;5.70;;;9.90;99.90;;;;;;5032396;28;20545;-49
2024/03/18 05:49:23;;;;;;;12.13;6.80;;;9.90;99.90;;;;;;5047956;28;20179;-51
2024/03/18 05:51:49;;;;;;;14.33;6.53;;;9.90;99.90;;;;;;5032478;28;20021;-50
2024/03/18 05:54:18;;;;;;;14.07;7.00;;;9.90;99.90;;;;;;5032144;28;20401;-48
2024/03/18 05:56:44;;;;;;;;;;;9.90;99.90;;;;;;5032661;28;20026;-47
2024/03/18 05:59:10;;;;;;;12.83;6.10;;;9.90;99.90;;;;;;5032084;28;19909;-47
2024/03/18 06:01:40;;;;;;;16.03;7.17;;;10.00;99.90;;;;;;5031709;28;20124;-49
2024/03/18 06:04:06;;;;;;;17.07;8.20;;;9.90;99.90;;;;;;5031872;28;20033;-47
2024/03/18 06:06:33;;;;;;;12.63;6.33;;;9.90;99.90;;;;;;5032215;28;20512;-49
2024/03/18 06:08:59;;;;;;;13.40;6.87;;;9.90;99.90;;;;;;5032040;28;20036;-46
2024/03/18 06:11:28;;;;;;;13.20;7.03;;;10.00;99.90;;;;;;5032490;28;20068;-49
2024/03/18 06:13:54;;;;;;;13.60;6.68;;;10.10;99.90;;;;;;5032013;28;20112;-48
2024/03/18 06:16:20;;;;;;;16.37;6.83;;;10.10;99.90;;;;;;5032343;28;20075;-50
2024/03/18 06:18:47;;;;;;;16.60;7.07;;;10.10;99.90;;;;;;5031971;28;20033;-49
2024/03/18 06:21:18;;;;;;;12.57;6.03;;;10.10;99.90;;;;;;5031850;28;20095;-50
2024/03/18 06:23:51;;;;;;;12.37;6.27;;;10.30;99.90;;;;;;5031878;28;20505;-49
2024/03/18 06:26:20;;;;;;;13.57;6.80;;;10.30;99.90;;;;;;5031582;28;20037;-52
2024/03/18 06:28:46;;;;;;;15.30;7.10;;;10.20;99.90;;;;;;5031661;28;20025;-51
2024/03/18 06:31:12;;;;;;;17.10;7.57;;;10.20;99.90;;;;;;5031650;28;20033;-49
2024/03/18 06:33:38;;;;;;;15.43;7.50;;;10.30;99.90;;;;;;5031649;28;20546;-53
2024/03/18 06:36:09;;;;;;;12.57;6.70;;;10.30;99.90;;;;;;5031709;28;20030;-51
2024/03/18 06:38:35;;;;;;;15.30;7.03;;;10.30;99.90;;;;;;5032028;28;20375;-52
2024/03/18 06:41:01;;;;;;;16.93;7.43;;;10.40;99.90;;;;;;5031616;28;20033;-51
2024/03/18 06:43:27;;;;;;;17.53;7.47;;;10.40;99.90;;;;;;5031570;28;20036;-49
2024/03/18 06:45:52;;;;;;;14.83;7.90;;;10.40;99.90;;;;;;5031705;28;20061;-50
2024/03/18 06:48:18;;;;;;;17.77;7.80;;;10.40;99.90;;;;;;5031891;28;20045;-50
2024/03/18 06:50:44;;;;;;;15.63;7.50;;;10.40;99.90;;;;;;5031644;28;20021;-48
2024/03/18 06:53:10;;;;;;;19.30;7.97;;;10.40;99.90;;;;;;5031444;28;20026;-48
2024/03/18 06:55:36;;;;;;;20.40;7.50;;;10.40;99.90;;;;;;5031542;28;20116;-52
2024/03/18 06:58:03;;;;;;;21.13;8.60;;;10.40;99.90;;;;;;5031603;28;20057;-52
2024/03/18 07:00:29;;;;;;;16.23;7.70;;;10.50;99.90;;;;;;5031524;28;20033;-47
2024/03/18 07:02:54;;;;;;;16.53;7.67;;;10.60;99.90;;;;;;5030458;28;20108;-50
2024/03/18 07:05:22;;;;;;;15.37;7.07;;;10.60;99.90;;;;;;5031304;28;20056;-51
2024/03/18 07:07:48;;;;;;;15.73;7.40;;;10.60;99.90;;;;;;5031562;28;20084;-51
2024/03/18 07:10:14;;;;;;;19.13;8.53;;;10.70;99.90;;;;;;5031333;28;20478;-51
2024/03/18 07:12:41;;;;;;;18.10;7.37;;;10.70;99.90;;;;;;5031614;28;20079;-52
2024/03/18 07:15:09;;;;;;;15.23;6.63;;;10.80;99.90;;;;;;5034973;28;20036;-50
2024/03/18 07:17:35;;;;;;;13.97;7.57;;;10.80;99.90;;;;;;5035417;28;20029;-47
2024/03/18 07:20:04;;;;;;;17.20;7.17;;;10.80;99.90;;;;;;5035294;28;20493;-51
2024/03/18 07:22:29;;;;;;;16.20;6.70;;;10.80;99.90;;;;;;5050557;28;20068;-47
2024/03/18 07:24:55;;;;;;;14.70;7.07;;;10.80;99.90;;;;;;5035035;28;20053;-51
2024/03/18 07:27:22;;;;;;;16.17;7.73;;;10.80;99.90;;;;;;5035046;28;20440;-50
2024/03/18 07:29:47;;;;;;;15.27;6.83;;;10.80;99.90;;;;;;5035068;28;20033;-49
2024/03/18 07:32:15;;;;;;;17.37;7.83;;;10.70;99.90;;;;;;5035097;28;20040;-50
2024/03/18 07:34:40;;;;;;;16.37;7.53;;;10.80;99.90;;;;;;5034856;28;20486;-50
2024/03/18 07:37:06;;;;;;;15.03;6.67;;;10.80;99.90;;;;;;5034916;28;20029;-52
2024/03/18 07:39:31;;;;;;;15.00;7.43;;;10.70;99.90;;;;;;5034806;28;20029;-53
2024/03/18 07:41:58;;;;;;;16.67;7.13;;;10.70;99.90;;;;;;5034879;28;20078;-53
2024/03/18 07:44:24;;;;;;;16.57;7.87;;;10.70;99.90;;;;;;5034633;28;20486;-52
2024/03/18 07:46:49;;;;;;;15.60;6.97;;;10.70;99.90;;;;;;5034789;28;20033;-52
2024/03/18 07:49:15;;;;;;;13.23;6.70;;;10.80;99.90;;;;;;5034634;28;20052;-50
2024/03/18 07:51:41;;;;;;;15.27;7.70;;;10.80;99.90;;;;;;5033494;28;20064;-47
2024/03/18 07:54:07;;;;;;;14.90;7.10;;;10.90;99.90;;;;;;5034350;28;20099;-50
2024/03/18 07:56:32;;;;;;;18.20;8.10;;;10.90;99.90;;;;;;5034512;28;20477;-51
2024/03/18 07:58:58;;;;;;;15.87;7.90;;;11.00;99.90;;;;;;5034655;28;20037;-49
2024/03/18 08:01:25;;;;;;;17.20;8.00;;;11.10;99.90;;;;;;5034772;28;20033;-51
2024/03/18 08:03:53;;;;;;;20.07;9.20;;;11.20;99.90;;;;;;5049692;28;20035;-47
2024/03/18 08:06:19;;;;;;;16.42;8.05;;;11.30;99.90;;;;;;5034303;28;20044;-46
2024/03/18 08:08:45;;;;;;;18.23;8.20;;;11.40;99.90;;;;;;5034293;28;20049;-49
2024/03/18 08:11:11;;;;;;;16.17;8.37;;;11.50;99.90;;;;;;5034258;28;20029;-50
2024/03/18 08:13:36;;;;;;;19.23;7.70;;;11.70;99.90;;;;;;5034117;28;20026;-50
2024/03/18 08:16:02;;;;;;;23.33;10.57;;;11.70;99.90;;;;;;5034347;28;20030;-51
2024/03/18 08:18:28;;;;;;;13.53;7.20;;;11.90;99.90;;;;;;5034207;28;20489;-49
2024/03/18 08:20:54;;;;;;;16.87;7.57;;;11.90;99.90;;;;;;5034056;28;20072;-48
2024/03/18 08:23:20;;;;;;;13.80;7.53;;;11.90;99.90;;;;;;5033915;28;20057;-51
2024/03/18 08:25:46;;;;;;;15.77;8.00;;;11.90;99.90;;;;;;5033276;28;20121;-52
2024/03/18 08:28:11;;;;;;;15.95;7.35;;;12.00;99.90;;;;;;5033969;28;20088;-49
2024/03/18 08:30:37;;;;;;;14.60;7.37;;;12.00;99.90;;;;;;5033933;28;20021;-47
2024/03/18 08:33:05;;;;;;;14.27;7.38;;;12.10;99.90;;;;;;5032785;28;20025;-49
2024/03/18 08:35:31;;;;;;;13.77;6.97;;;12.20;99.90;;;;;;5033885;28;20033;-51
2024/03/18 08:37:57;;;;;;;15.10;7.40;;;12.10;99.90;;;;;;5034366;28;20340;-50
2024/03/18 08:40:23;;;;;;;14.80;7.15;;;12.10;99.90;;;;;;5033875;28;20084;-51
2024/03/18 08:42:48;;;;;;;18.25;8.88;;;12.10;99.90;;;;;;5034155;28;20065;-47
2024/03/18 08:45:16;;;;;;;18.70;8.40;;;12.20;99.90;;;;;;5033805;28;20056;-52
2024/03/18 08:47:41;;;;;;;21.67;10.43;;;12.30;99.90;;;;;;5033893;28;20045;-53
2024/03/18 08:50:08;;;;;;;19.13;9.50;;;12.50;99.90;;;;;;5033830;28;20021;-51
2024/03/18 08:52:36;;;;;;;20.52;10.60;;;12.70;99.90;;;;;;5033970;28;20033;-46
2024/03/18 08:55:06;;;;;;;22.80;11.70;;;12.70;99.90;;;;;;5016723;28;20041;-47
2024/03/18 08:57:31;;;;;;;25.55;11.45;;;12.80;99.90;;;;;;5033386;28;20034;-51
2024/03/18 08:59:57;;;;;;;28.02;12.02;;;13.00;99.90;;;;;;5033288;28;20052;-50
2024/03/18 09:02:23;;;;;;;24.15;11.73;;;13.20;99.90;;;;;;5033468;28;20115;-51
2024/03/18 09:04:48;;;;;;;18.95;10.82;;;13.50;99.90;;;;;;5033015;28;20025;-47
2024/03/18 09:07:14;;;;;;;26.63;11.23;;;13.80;99.90;;;;;;5033218;28;20029;-50
2024/03/18 09:09:40;;;;;;;20.10;9.05;;;14.10;99.90;;;;;;5033251;28;20128;-52
2024/03/18 09:12:06;;;;;;;24.05;10.75;;;14.30;99.90;;;;;;5033223;28;20026;-52
2024/03/18 09:14:31;;;;;;;21.70;10.45;;;14.50;99.90;;;;;;5031837;28;20034;-49
2024/03/18 09:17:01;;;;;;;19.48;10.27;;;14.50;99.90;;;;;;5033126;28;20100;-53
2024/03/18 09:19:30;;;;;;;18.38;9.70;;;14.70;99.90;;;;;;5032946;28;20417;-53
2024/03/18 09:21:56;;;;;;;20.42;10.00;;;14.80;99.90;;;;;;5033089;28;20033;-51
2024/03/18 09:24:23;;;;;;;20.48;9.73;;;15.00;99.90;;;;;;5032961;28;20494;-53
2024/03/18 09:26:49;;;;;;;19.92;9.68;;;15.10;99.90;;;;;;5033038;28;20109;-52
2024/03/18 09:29:14;;;;;;;17.40;9.77;;;15.20;99.90;;;;;;5032917;28;20029;-53
2024/03/18 09:31:42;;;;;;;18.42;9.57;;;15.30;99.90;;;;;;5032916;28;20398;-50
2024/03/18 09:34:09;;;;;;;16.23;9.23;;;15.30;99.90;;;;;;5032670;28;20060;-52
2024/03/18 09:36:35;;;;;;;14.98;8.23;;;15.30;99.90;;;;;;5032012;28;20040;-50
2024/03/18 09:39:00;;;;;;;16.23;8.38;;;15.40;99.90;;;;;;5032198;28;20033;-52
2024/03/18 09:41:27;;;;;;;17.92;8.63;;;15.70;99.90;;;;;;5032702;28;20034;-52
2024/03/18 09:43:53;;;;;;;13.43;7.47;;;15.90;99.90;;;;;;5032551;28;20060;-51
2024/03/18 09:46:19;;;;;;;16.58;7.32;;;16.10;99.90;;;;;;5032440;28;20045;-50
2024/03/18 09:48:45;;;;;;;12.93;6.05;;;16.80;99.90;;;;;;5032378;28;20037;-52
2024/03/18 09:51:17;;;;;;;9.38;5.15;;;17.60;99.90;;;;;;5032389;28;20152;-48
2024/03/18 09:53:46;;;;;;;10.88;6.15;;;18.80;99.90;;;;;;5032198;28;20250;-51
2024/03/18 09:56:15;;;;;;;10.93;5.43;;;18.90;99.90;;;;;;5032314;28;20033;-50
2024/03/18 09:58:42;;;;;;;11.70;5.50;;;18.90;99.90;;;;;;5032443;28;20033;-49
2024/03/18 10:01:11;;;;;;;9.60;4.90;;;18.50;99.90;;;;;;5032243;28;20025;-48
2024/03/18 10:03:44;;;;;;;11.18;4.45;;;17.80;99.90;;;;;;5032153;28;20104;-48
2024/03/18 10:06:12;;;;;;;9.40;4.00;;;17.40;99.90;;;;;;5032214;28;20029;-48
2024/03/18 10:08:39;;;;;;;10.33;4.03;;;17.10;99.90;;;;;;5032152;28;20083;-48
2024/03/18 10:11:07;;;;;;;8.95;3.60;;;17.00;99.90;;;;;;5032031;28;20029;-53
2024/03/18 10:13:33;;;;;;;8.30;3.38;;;16.70;99.90;;;;;;5031936;28;20482;-52
2024/03/18 10:16:00;;;;;;;5.85;2.72;;;16.80;99.90;;;;;;5032053;28;20022;-49
2024/03/18 10:18:26;;;;;;;8.32;3.80;;;17.10;99.90;;;;;;5047312;28;20099;-51
2024/03/18 10:20:52;;;;;;;6.75;2.72;;;17.30;99.90;;;;;;5031951;28;20421;-53
2024/03/18 10:23:19;;;;;;;6.28;2.13;;;17.50;99.90;;;;;;5031882;28;20102;-53
2024/03/18 10:25:45;;;;;;;5.00;1.95;;;17.90;99.90;;;;;;5031938;28;20033;-50
2024/03/18 10:28:13;;;;;;;6.28;2.40;;;18.70;99.90;;;;;;5031866;28;20099;-48
2024/03/18 10:30:39;;;;;;;4.32;1.38;;;19.00;99.90;;;;;;5031877;28;20033;-48
2024/03/18 10:33:07;;;;;;;3.78;1.40;;;19.40;99.90;;;;;;5031761;28;20156;-48
2024/03/18 10:35:34;;;;;;;3.97;1.33;;;19.30;99.90;;;;;;5031775;28;20079;-48
2024/03/18 10:38:00;;;;;;;4.47;1.10;;;19.00;99.90;;;;;;5031821;28;20040;-49
2024/03/18 10:40:38;;;;;;;4.85;1.40;;;18.20;99.90;;;;;;5031739;28;20029;-48
2024/03/18 10:43:06;;;;;;;4.73;1.73;;;17.60;99.90;;;;;;5031780;28;20033;-49
2024/03/18 10:45:42;;;;;;;6.03;1.70;;;17.20;99.90;;;;;;5031651;28;20025;-50
2024/03/18 10:48:13;;;;;;;6.88;1.70;;;16.70;99.90;;;;;;5031984;28;20037;-49
2024/03/18 10:50:39;;;;;;;7.47;1.90;;;16.50;99.90;;;;;;5035818;28;20030;-50
2024/03/18 10:53:18;;;;;;;3.75;1.48;;;16.20;99.90;;;;;;5035422;28;20131;-48
2024/03/18 10:55:45;;;;;;;5.38;1.75;;;15.90;99.90;;;;;;5035742;28;20378;-48
2024/03/18 10:58:11;;;;;;;5.97;1.98;;;16.10;99.90;;;;;;5034358;28;20041;-48
2024/03/18 11:00:37;;;;;;;5.25;1.95;;;16.50;99.90;;;;;;5035795;28;20385;-49
2024/03/18 11:03:12;;;;;;;6.10;1.92;;;17.40;99.90;;;;;;5035427;28;20034;-47
2024/03/18 11:05:49;;;;;;;7.18;2.20;;;17.90;99.90;;;;;;5035425;28;20037;-50
2024/03/18 11:08:19;;;;;;;6.93;1.95;;;18.20;99.90;;;;;;5035442;28;20080;-51
2024/03/18 11:10:46;;;;;;;3.90;1.85;;;18.30;99.90;;;;;;5035453;28;20026;-47
2024/03/18 11:13:14;;;;;;;7.43;2.65;;;18.20;99.90;;;;;;5035350;28;20029;-51
2024/03/18 11:15:40;;;;;;;5.55;1.98;;;17.90;99.90;;;;;;5035303;28;20036;-49
2024/03/18 11:18:08;;;;;;;8.48;2.63;;;17.80;99.90;;;;;;5035290;28;20516;-50
2024/03/18 11:20:51;;;;;;;9.73;3.15;;;17.80;99.90;;;;;;5035180;28;20061;-45
2024/03/18 11:23:21;;;;;;;7.65;3.17;;;18.00;99.90;;;;;;5035063;28;20069;-51
2024/03/18 11:26:10;;;;;;;10.60;4.40;;;18.30;99.90;;;;;;5035205;28;20030;-48
2024/03/18 11:28:45;;;;;;;8.15;3.80;;;18.60;99.90;;;;;;5034994;28;20130;-48
2024/03/18 11:31:16;;;;;;;11.18;4.75;;;18.80;99.90;;;;;;5035102;28;20021;-48
2024/03/18 11:33:44;;;;;;;7.80;3.55;;;18.50;99.90;;;;;;5034895;28;20091;-47
2024/03/18 11:36:16;;;;;;;10.52;4.20;;;18.10;99.90;;;;;;5034918;28;20044;-48
2024/03/18 11:38:42;;;;;;;8.73;4.38;;;17.70;99.90;;;;;;5035030;28;20445;-48
2024/03/18 11:41:07;;;;;;;10.88;5.38;;;17.30;99.90;;;;;;5034903;28;20036;-48
2024/03/18 11:43:34;;;;;;;10.07;4.82;;;17.00;99.90;;;;;;5034681;28;20492;-51
2024/03/18 11:46:00;;;;;;;9.95;5.07;;;16.40;99.90;;;;;;5034767;28;20061;-50
2024/03/18 11:48:30;;;;;;;9.75;4.53;;;16.30;99.90;;;;;;5033576;28;20073;-48
2024/03/18 11:50:56;;;;;;;12.38;5.40;;;16.30;99.90;;;;;;5034614;28;20033;-49
2024/03/18 11:53:23;;;;;;;10.85;5.22;;;16.20;99.90;;;;;;5034396;28;20116;-48
2024/03/18 11:55:52;;;;;;;14.75;5.18;;;16.30;99.90;;;;;;5034616;28;20025;-49
2024/03/18 11:58:19;;;;;;;12.48;5.50;;;16.10;99.90;;;;;;5034654;28;20444;-51
2024/03/18 12:00:47;;;;;;;10.40;5.55;;;16.00;99.90;;;;;;5033426;28;20398;-48
2024/03/18 12:03:14;;;;;;;12.05;5.28;;;16.10;99.90;;;;;;5034504;28;20163;-47
2024/03/18 12:05:42;;;;;;;9.20;5.07;;;15.90;99.90;;;;;;5034333;28;20033;-48
2024/03/18 12:08:16;;;;;;;12.85;5.45;;;15.80;99.90;;;;;;5049591;28;20037;-48
2024/03/18 12:10:42;;;;;;;11.25;5.00;;;15.70;99.90;;;;;;5034469;28;20204;-50
2024/03/18 12:13:08;;;;;;;11.85;6.00;;;15.70;99.90;;;;;;5034315;28;20029;-48
2024/03/18 12:15:34;;;;;;;11.32;5.55;;;15.60;99.90;;;;;;5034245;28;20440;-50
2024/03/18 12:18:06;;;;;;;12.55;5.70;;;15.50;99.90;;;;;;5034726;28;20029;-48
2024/03/18 12:20:32;;;;;;;12.05;6.07;;;15.40;99.90;;;;;;5032847;28;20033;-48
2024/03/18 12:22:59;;;;;;;14.93;7.18;;;15.30;99.90;;;;;;5034168;28;20116;-47
2024/03/18 12:31:06;;;;;;;15.77;6.38;;;15.40;99.90;;;;;;5033949;28;20025;-48
2024/03/18 12:33:33;;;;;;;11.90;5.97;;;15.30;99.90;;;;;;5033811;28;20025;-48
2024/03/18 12:36:00;;;;;;;12.00;5.80;;;15.20;99.90;;;;;;5033736;28;20037;-47
2024/03/18 12:38:36;;;;;;;14.50;6.55;;;15.10;99.90;;;;;;5033819;28;20105;-47
2024/03/18 12:41:02;;;;;;;14.07;6.60;;;15.00;99.90;;;;;;5033772;28;20083;-49
2024/03/18 12:43:28;;;;;;;15.82;7.22;;;14.80;99.90;;;;;;5033599;28;20040;-47
2024/03/18 12:45:53;;;;;;;14.32;7.13;;;14.80;99.90;;;;;;5032505;28;20034;-48
2024/03/18 12:48:21;;;;;;;12.63;6.57;;;14.80;99.90;;;;;;5033752;28;20429;-47